createdAt,value
2022-10-28T00:01:04.572Z,20.10
2022-10-28T00:03:32.981Z,20.10
2022-10-28T00:06:04.496Z,20.00
2022-10-28T00:08:32.892Z,20.10
2022-10-28T00:11:05.087Z,20.10
2022-10-28T00:13:33.221Z,20.00
2022-10-28T00:16:06.613Z,20.00
2022-10-28T00:18:34.635Z,20.00
2022-10-28T00:21:03.164Z,19.90
2022-10-28T00:23:31.241Z,19.90
2022-10-28T00:26:04.844Z,19.90
2022-10-28T00:28:32.913Z,19.90
2022-10-28T00:31:04.595Z,19.90
2022-10-28T00:33:34.310Z,19.90
2022-10-28T00:36:09.393Z,19.90
2022-10-28T00:38:37.486Z,19.80
2022-10-28T00:41:08.435Z,19.80
2022-10-28T00:43:40.904Z,19.80
2022-10-28T00:46:12.964Z,19.70
2022-10-28T00:48:46.907Z,19.70
2022-10-28T00:51:15.189Z,19.70
2022-10-28T00:53:44.089Z,19.70
2022-10-28T00:56:12.713Z,19.70
2022-10-28T00:58:40.834Z,19.60
2022-10-28T01:01:08.971Z,19.60
2022-10-28T01:03:37.863Z,19.60
2022-10-28T01:06:08.105Z,19.60
2022-10-28T01:08:38.286Z,19.60
2022-10-28T01:11:24.245Z,19.60
2022-10-28T01:14:04.441Z,19.70
2022-10-28T01:16:36.735Z,19.70
2022-10-28T01:19:14.539Z,19.60
2022-10-28T01:22:00.299Z,19.60
2022-10-28T01:24:37.349Z,19.60
2022-10-28T01:27:26.411Z,19.60
2022-10-28T01:30:09.292Z,19.50
2022-10-28T01:32:45.359Z,19.50
2022-10-28T01:35:20.277Z,19.60
2022-10-28T01:37:50.650Z,19.60
2022-10-28T01:40:21.916Z,19.60
2022-10-28T01:42:54.677Z,19.60
2022-10-28T01:45:25.936Z,19.60
2022-10-28T01:47:57.883Z,19.70
2022-10-28T01:50:30.972Z,19.70
2022-10-28T01:53:01.468Z,19.70
2022-10-28T01:55:31.458Z,19.70
2022-10-28T01:58:00.578Z,19.70
2022-10-28T02:00:32.273Z,19.70
2022-10-28T02:03:01.708Z,19.70
2022-10-28T02:05:39.638Z,19.70
2022-10-28T02:08:15.451Z,19.60
2022-10-28T02:10:46.606Z,19.60
2022-10-28T02:13:15.644Z,19.60
2022-10-28T02:15:48.157Z,19.50
2022-10-28T02:18:26.211Z,19.50
2022-10-28T02:20:55.300Z,19.40
2022-10-28T02:23:28.466Z,19.50
2022-10-28T02:26:01.789Z,19.40
2022-10-28T02:28:34.177Z,19.40
2022-10-28T02:31:05.147Z,19.40
2022-10-28T02:33:37.018Z,19.40
2022-10-28T02:36:06.551Z,19.40
2022-10-28T02:38:37.377Z,19.40
2022-10-28T02:41:07.430Z,19.40
2022-10-28T02:43:37.527Z,19.30
2022-10-28T02:46:06.121Z,19.30
2022-10-28T02:48:37.103Z,19.20
2022-10-28T02:51:08.708Z,19.30
2022-10-28T02:53:42.812Z,19.30
2022-10-28T02:56:11.226Z,19.20
2022-10-28T02:58:40.227Z,19.20
2022-10-28T03:01:08.928Z,19.20
2022-10-28T03:03:38.550Z,19.20
2022-10-28T03:06:06.728Z,19.20
2022-10-28T03:08:34.878Z,19.20
2022-10-28T03:11:02.887Z,19.30
2022-10-28T03:13:31.022Z,19.30
2022-10-28T03:15:59.077Z,19.20
2022-10-28T03:18:27.355Z,19.20
2022-10-28T03:20:59.002Z,19.20
2022-10-28T03:23:27.277Z,19.10
2022-10-28T03:25:55.308Z,19.20
2022-10-28T03:28:23.377Z,19.30
2022-10-28T03:30:51.445Z,19.30
2022-10-28T03:33:19.450Z,19.30
2022-10-28T03:35:47.615Z,19.30
2022-10-28T03:38:17.012Z,19.40
2022-10-28T03:40:48.664Z,19.40
2022-10-28T03:43:16.826Z,19.40
2022-10-28T03:45:44.925Z,19.40
2022-10-28T03:48:12.952Z,19.30
2022-10-28T03:50:41.021Z,19.30
2022-10-28T03:53:09.197Z,19.30
2022-10-28T03:55:38.734Z,19.30
2022-10-28T03:58:06.847Z,19.30
2022-10-28T04:00:34.882Z,19.30
2022-10-28T04:03:02.937Z,19.40
2022-10-28T04:05:30.926Z,19.30
2022-10-28T04:07:58.940Z,19.40
2022-10-28T04:10:27.006Z,19.40
2022-10-28T04:13:00.290Z,19.40
2022-10-28T04:15:28.309Z,19.30
2022-10-28T04:17:56.380Z,19.40
2022-10-28T04:20:24.513Z,19.40
2022-10-28T04:22:56.090Z,19.40
2022-10-28T04:25:26.100Z,19.40
2022-10-28T04:27:54.519Z,19.40
2022-10-28T04:30:24.481Z,19.40
2022-10-28T04:32:52.441Z,19.40
2022-10-28T04:35:20.527Z,19.40
2022-10-28T04:37:48.612Z,19.40
2022-10-28T04:40:16.740Z,19.30
2022-10-28T04:42:44.775Z,19.40
2022-10-28T04:45:12.825Z,19.40
2022-10-28T04:47:42.376Z,19.40
2022-10-28T04:50:10.591Z,19.30
2022-10-28T04:52:38.675Z,19.30
2022-10-28T04:55:09.415Z,19.30
2022-10-28T04:57:37.415Z,19.30
2022-10-28T05:00:05.944Z,19.30
2022-10-28T05:02:33.992Z,19.30
2022-10-28T05:05:06.216Z,19.30
2022-10-28T05:07:34.258Z,19.30
2022-10-28T05:10:02.407Z,19.30
2022-10-28T05:12:30.463Z,19.20
2022-10-28T05:14:58.536Z,19.20
2022-10-28T05:17:26.662Z,19.20
2022-10-28T05:19:54.775Z,19.20
2022-10-28T05:22:24.171Z,19.20
2022-10-28T05:24:52.238Z,19.20
2022-10-28T05:27:20.363Z,19.20
2022-10-28T05:29:48.443Z,19.20
2022-10-28T05:32:16.417Z,19.20
2022-10-28T05:34:46.561Z,19.20
2022-10-28T05:37:14.542Z,19.10
2022-10-28T05:39:43.945Z,19.10
2022-10-28T05:42:12.003Z,19.10
2022-10-28T05:44:40.156Z,19.10
2022-10-28T05:47:08.283Z,19.10
2022-10-28T05:49:36.442Z,19.20
2022-10-28T05:52:07.014Z,19.20
2022-10-28T05:54:35.134Z,19.30
2022-10-28T05:57:04.717Z,19.30
2022-10-28T05:59:32.721Z,19.30
2022-10-28T06:02:00.806Z,19.30
2022-10-28T06:04:29.777Z,19.30
2022-10-28T06:06:58.050Z,19.30
2022-10-28T06:09:28.471Z,19.30
2022-10-28T06:11:54.999Z,19.40
2022-10-28T06:14:26.555Z,19.40
2022-10-28T06:16:54.682Z,19.40
2022-10-28T06:19:22.840Z,19.50
2022-10-28T06:21:50.853Z,19.40
2022-10-28T06:24:18.914Z,19.40
2022-10-28T06:26:47.501Z,19.40
2022-10-28T06:29:15.611Z,19.30
2022-10-28T06:31:45.052Z,19.30
2022-10-28T06:34:13.107Z,19.30
2022-10-28T06:36:41.089Z,19.30
2022-10-28T06:39:09.205Z,19.30
2022-10-28T06:41:37.229Z,19.30
2022-10-28T06:44:05.448Z,19.30
2022-10-28T06:46:35.108Z,19.40
2022-10-28T06:49:05.176Z,19.40
2022-10-28T06:51:33.541Z,19.50
2022-10-28T06:54:01.574Z,19.50
2022-10-28T06:56:29.639Z,19.50
2022-10-28T06:59:00.130Z,19.50
2022-10-28T07:01:28.304Z,19.60
2022-10-28T07:03:56.517Z,19.70
2022-10-28T07:06:26.041Z,19.70
2022-10-28T07:08:54.129Z,19.80
2022-10-28T07:11:22.218Z,19.90
2022-10-28T07:13:52.542Z,20.10
2022-10-28T07:16:20.582Z,20.30
2022-10-28T07:18:48.631Z,20.60
2022-10-28T07:21:18.476Z,20.60
2022-10-28T07:23:49.971Z,20.80
2022-10-28T07:26:18.036Z,20.90
2022-10-28T07:28:46.041Z,20.90
2022-10-28T07:31:14.128Z,20.80
2022-10-28T07:33:44.562Z,20.70
2022-10-28T07:36:12.933Z,20.60
2022-10-28T07:38:41.029Z,20.50
2022-10-28T07:41:10.932Z,20.40
2022-10-28T07:43:41.040Z,20.40
2022-10-28T07:46:09.855Z,20.30
2022-10-28T07:48:38.309Z,20.30
2022-10-28T07:51:07.789Z,20.40
2022-10-28T07:53:38.407Z,20.60
2022-10-28T07:56:09.630Z,20.80
2022-10-28T07:58:39.167Z,20.90
2022-10-28T08:01:08.813Z,21.10
2022-10-28T08:03:39.490Z,21.30
2022-10-28T08:06:08.457Z,21.60
2022-10-28T08:08:39.178Z,21.70
2022-10-28T08:11:11.032Z,21.80
2022-10-28T08:13:40.774Z,22.00
2022-10-28T08:16:09.375Z,22.20
2022-10-28T08:18:40.650Z,22.30
2022-10-28T08:21:13.185Z,22.30
2022-10-28T08:23:46.600Z,22.20
2022-10-28T08:26:15.116Z,22.30
2022-10-28T08:28:44.817Z,22.40
2022-10-28T08:31:13.207Z,22.50
2022-10-28T08:33:42.346Z,22.70
2022-10-28T08:36:11.287Z,22.70
2022-10-28T08:38:45.746Z,22.80
2022-10-28T08:41:18.868Z,22.80
2022-10-28T08:44:21.662Z,22.80
2022-10-28T08:46:56.517Z,22.90
2022-10-28T08:49:25.215Z,23.00
2022-10-28T08:51:58.019Z,23.20
2022-10-28T08:54:31.976Z,23.30
2022-10-28T08:57:02.408Z,23.40
2022-10-28T08:59:33.630Z,23.40
2022-10-28T09:02:04.260Z,23.60
2022-10-28T09:04:39.609Z,23.60
2022-10-28T09:07:10.753Z,23.70
2022-10-28T09:09:40.140Z,23.80
2022-10-28T09:12:23.254Z,23.80
2022-10-28T09:15:13.133Z,23.90
2022-10-28T09:17:52.501Z,23.90
2022-10-28T09:20:24.942Z,23.90
2022-10-28T09:22:57.998Z,23.80
2022-10-28T09:25:35.645Z,23.90
2022-10-28T09:28:28.223Z,24.00
2022-10-28T09:31:06.732Z,24.10
2022-10-28T09:33:42.322Z,24.20
2022-10-28T09:36:14.155Z,24.40
2022-10-28T09:38:42.613Z,24.50
2022-10-28T09:41:17.240Z,24.70
2022-10-28T09:43:51.640Z,24.70
2022-10-28T09:46:26.234Z,24.70
2022-10-28T09:48:55.696Z,24.70
2022-10-28T09:51:27.984Z,25.10
2022-10-28T09:53:59.397Z,25.20
2022-10-28T09:56:30.505Z,25.40
2022-10-28T09:59:00.085Z,25.40
2022-10-28T10:01:32.185Z,25.40
2022-10-28T10:04:00.755Z,25.50
2022-10-28T10:06:30.082Z,25.60
2022-10-28T10:08:58.256Z,25.70
2022-10-28T10:11:29.095Z,25.80
2022-10-28T10:14:01.233Z,25.90
2022-10-28T10:16:40.848Z,26.00
2022-10-28T10:19:12.081Z,26.10
2022-10-28T10:21:46.332Z,26.10
2022-10-28T10:24:24.493Z,26.30
2022-10-28T10:26:53.360Z,26.40
2022-10-28T10:29:24.200Z,26.60
2022-10-28T10:32:16.198Z,26.60
2022-10-28T10:34:47.890Z,26.50
2022-10-28T10:37:22.269Z,26.60
2022-10-28T10:40:04.929Z,26.70
2022-10-28T10:42:42.520Z,26.90
2022-10-28T10:45:24.206Z,27.10
2022-10-28T10:48:07.323Z,27.30
2022-10-28T10:50:38.037Z,27.30
2022-10-28T10:53:06.654Z,27.20
2022-10-28T10:55:36.172Z,27.40
2022-10-28T10:58:05.968Z,27.50
2022-10-28T11:00:39.830Z,27.70
2022-10-28T11:03:14.870Z,27.90
2022-10-28T11:06:05.309Z,28.00
2022-10-28T11:08:42.713Z,28.00
2022-10-28T11:11:14.622Z,27.90
2022-10-28T11:13:46.099Z,27.70
2022-10-28T11:16:22.827Z,27.50
2022-10-28T11:18:52.840Z,27.70
2022-10-28T11:21:35.283Z,27.90
2022-10-28T11:24:18.504Z,28.10
2022-10-28T11:26:55.621Z,28.20
2022-10-28T11:29:24.310Z,28.40
2022-10-28T11:32:24.084Z,28.40
2022-10-28T11:35:07.222Z,28.40
2022-10-28T11:37:51.875Z,28.60
2022-10-28T11:40:32.340Z,28.70
2022-10-28T11:43:07.233Z,28.70
2022-10-28T11:45:40.663Z,28.90
2022-10-28T11:48:23.689Z,29.00
2022-10-28T11:51:08.489Z,28.90
2022-10-28T11:53:51.490Z,28.80
2022-10-28T11:56:27.998Z,28.70
2022-10-28T11:59:03.202Z,28.50
2022-10-28T12:01:38.711Z,28.40
2022-10-28T12:04:10.721Z,28.20
2022-10-28T12:06:54.826Z,28.10
2022-10-28T12:09:26.263Z,28.10
2022-10-28T12:12:01.423Z,28.20
2022-10-28T12:14:34.447Z,28.20
2022-10-28T12:17:06.626Z,28.20
2022-10-28T12:19:37.781Z,28.20
2022-10-28T12:22:07.806Z,28.10
2022-10-28T12:24:36.691Z,28.10
2022-10-28T12:27:11.409Z,28.10
2022-10-28T12:29:43.748Z,28.10
2022-10-28T12:32:15.001Z,28.10
2022-10-28T12:34:47.789Z,28.00
2022-10-28T12:37:19.405Z,28.00
2022-10-28T12:39:50.268Z,28.20
2022-10-28T12:42:22.125Z,28.20
2022-10-28T12:44:53.588Z,28.20
2022-10-28T12:47:25.039Z,28.30
2022-10-28T12:49:58.708Z,28.20
2022-10-28T12:52:34.056Z,28.30
2022-10-28T12:55:03.821Z,28.30
2022-10-28T12:57:35.346Z,28.40
2022-10-28T13:00:05.646Z,28.40
2022-10-28T13:02:36.817Z,28.20
2022-10-28T13:05:05.629Z,28.40
2022-10-28T13:07:40.645Z,28.40
2022-10-28T13:10:18.636Z,28.40
2022-10-28T13:13:01.781Z,28.40
2022-10-28T13:15:50.857Z,28.40
2022-10-28T13:18:29.535Z,28.20
2022-10-28T13:21:04.988Z,28.10
2022-10-28T13:23:36.087Z,28.00
2022-10-28T13:26:08.889Z,28.10
2022-10-28T13:28:45.992Z,28.10
2022-10-28T13:31:15.500Z,28.20
2022-10-28T13:33:49.122Z,28.20
2022-10-28T13:36:18.627Z,28.20
2022-10-28T13:38:56.948Z,28.20
2022-10-28T13:41:33.123Z,28.20
2022-10-28T13:44:18.882Z,28.10
2022-10-28T13:47:17.024Z,28.00
2022-10-28T13:49:59.923Z,28.10
2022-10-28T13:52:29.423Z,28.10
2022-10-28T13:54:58.914Z,28.10
2022-10-28T13:57:33.209Z,28.00
2022-10-28T14:00:02.121Z,27.80
2022-10-28T14:02:37.348Z,27.70
2022-10-28T14:05:06.809Z,27.70
2022-10-28T14:07:37.240Z,27.70
2022-10-28T14:10:20.380Z,27.70
2022-10-28T14:12:52.252Z,27.70
2022-10-28T14:15:28.186Z,27.60
2022-10-28T14:18:09.863Z,27.50
2022-10-28T14:20:45.317Z,27.40
2022-10-28T14:23:32.130Z,27.40
2022-10-28T14:26:04.446Z,27.40
2022-10-28T14:28:52.171Z,27.30
2022-10-28T14:31:40.746Z,27.20
2022-10-28T14:34:27.534Z,27.20
2022-10-28T14:37:01.171Z,27.10
2022-10-28T14:39:36.957Z,27.00
2022-10-28T14:42:15.648Z,27.00
2022-10-28T14:44:59.810Z,26.90
2022-10-28T14:47:48.439Z,26.80
2022-10-28T14:50:23.330Z,26.80
2022-10-28T14:52:54.848Z,26.70
2022-10-28T14:55:27.744Z,26.70
2022-10-28T15:01:17.730Z,26.60
2022-10-28T15:03:48.647Z,26.60
2022-10-28T15:06:32.585Z,26.60
2022-10-28T15:09:12.018Z,26.60
2022-10-28T15:11:44.767Z,26.50
2022-10-28T15:14:25.774Z,26.50
2022-10-28T15:16:58.354Z,26.40
2022-10-28T15:19:30.690Z,26.30
2022-10-28T15:22:03.602Z,26.20
2022-10-28T15:24:34.571Z,26.20
2022-10-28T15:27:02.864Z,26.20
2022-10-28T15:29:33.818Z,26.10
2022-10-28T15:32:16.243Z,26.00
2022-10-28T15:34:47.401Z,25.90
2022-10-28T15:37:18.998Z,25.80
2022-10-28T15:39:48.354Z,25.80
2022-10-28T15:42:38.212Z,25.80
2022-10-28T15:45:07.719Z,25.70
2022-10-28T15:47:38.113Z,25.70
2022-10-28T15:50:18.991Z,25.70
2022-10-28T15:52:48.218Z,25.70
2022-10-28T15:55:41.335Z,25.60
2022-10-28T15:58:32.316Z,25.60
2022-10-28T16:01:00.541Z,25.60
2022-10-28T16:03:41.400Z,25.50
2022-10-28T16:06:23.604Z,25.40
2022-10-28T16:09:00.397Z,25.30
2022-10-28T16:11:28.824Z,25.20
2022-10-28T16:13:57.043Z,25.20
2022-10-28T16:16:26.064Z,25.30
2022-10-28T16:19:01.692Z,25.30
2022-10-28T16:21:29.735Z,25.20
2022-10-28T16:23:59.053Z,25.20
2022-10-28T16:26:27.664Z,25.20
2022-10-28T16:28:56.375Z,25.20
2022-10-28T16:31:26.189Z,25.20
2022-10-28T16:33:55.691Z,25.20
2022-10-28T16:36:23.826Z,25.10
2022-10-28T16:38:51.824Z,25.10
2022-10-28T16:41:20.291Z,25.00
2022-10-28T16:43:48.395Z,24.90
2022-10-28T16:46:16.506Z,24.90
2022-10-28T16:48:44.546Z,24.90
2022-10-28T16:51:16.197Z,24.90
2022-10-28T16:53:47.509Z,24.90
2022-10-28T16:56:15.963Z,24.90
2022-10-28T16:58:44.933Z,24.90
2022-10-28T17:01:13.262Z,24.90
2022-10-28T17:03:41.373Z,24.90
2022-10-28T17:06:10.475Z,24.80
2022-10-28T17:09:01.734Z,24.80
2022-10-28T17:11:33.077Z,24.80
2022-10-28T17:14:01.080Z,24.90
2022-10-28T17:16:29.184Z,24.80
2022-10-28T17:18:59.603Z,24.80
2022-10-28T17:21:27.625Z,24.90
2022-10-28T17:23:57.085Z,24.80
2022-10-28T17:26:25.141Z,24.70
2022-10-28T17:28:53.388Z,24.70
2022-10-28T17:31:25.190Z,24.60
2022-10-28T17:33:54.403Z,24.60
2022-10-28T17:36:23.733Z,24.60
2022-10-28T17:38:51.777Z,24.50
2022-10-28T17:41:21.381Z,24.50
2022-10-28T17:43:49.378Z,24.50
2022-10-28T17:46:17.425Z,24.50
2022-10-28T17:48:45.439Z,24.50
2022-10-28T17:51:13.818Z,24.40
2022-10-28T17:53:42.065Z,24.40
2022-10-28T17:56:10.569Z,24.40
2022-10-28T17:58:40.186Z,24.50
2022-10-28T18:01:09.522Z,24.50
2022-10-28T18:03:39.211Z,24.50
2022-10-28T18:06:11.729Z,24.50
2022-10-28T18:08:40.924Z,24.50
2022-10-28T18:11:09.707Z,24.50
2022-10-28T18:13:38.294Z,24.50
2022-10-28T18:16:08.819Z,24.50
2022-10-28T18:18:41.094Z,24.40
2022-10-28T18:21:11.083Z,24.50
2022-10-28T18:23:39.220Z,24.40
2022-10-28T18:26:08.127Z,24.40
2022-10-28T18:28:36.776Z,24.40
2022-10-28T18:31:05.440Z,24.40
2022-10-28T18:33:35.566Z,24.30
2022-10-28T18:36:04.470Z,24.30
2022-10-28T18:38:33.413Z,24.20
2022-10-28T18:41:01.464Z,24.20
2022-10-28T18:43:29.586Z,24.10
2022-10-28T18:46:01.150Z,24.10
2022-10-28T18:48:29.229Z,24.00
2022-10-28T18:51:01.859Z,24.00
2022-10-28T18:53:29.883Z,23.90
2022-10-28T18:56:00.662Z,23.90
2022-10-28T18:58:28.740Z,23.90
2022-10-28T19:01:04.154Z,24.00
2022-10-28T19:03:32.277Z,24.00
2022-10-28T19:06:05.647Z,24.10
2022-10-28T19:08:33.663Z,24.10
2022-10-28T19:11:02.234Z,24.10
2022-10-28T19:13:30.375Z,24.10
2022-10-28T19:15:59.591Z,24.10
2022-10-28T19:18:27.722Z,24.10
2022-10-28T19:21:03.131Z,24.20
2022-10-28T19:23:35.220Z,24.10
2022-10-28T19:26:04.177Z,24.10
2022-10-28T19:28:32.369Z,24.10
2022-10-28T19:31:01.270Z,24.10
2022-10-28T19:33:29.442Z,24.10
2022-10-28T19:36:01.580Z,24.10
2022-10-28T19:38:31.697Z,24.10
2022-10-28T19:41:08.308Z,24.10
2022-10-28T19:43:36.524Z,24.10
2022-10-28T19:46:05.303Z,24.00
2022-10-28T19:48:35.377Z,24.00
2022-10-28T19:51:05.914Z,24.10
2022-10-28T19:53:34.014Z,24.10
2022-10-28T19:56:02.864Z,24.10
2022-10-28T19:58:32.806Z,24.20
2022-10-28T20:01:01.862Z,24.20
2022-10-28T20:03:34.279Z,24.20
2022-10-28T20:06:05.046Z,24.20
2022-10-28T20:08:34.312Z,24.20
2022-10-28T20:11:05.730Z,24.20
2022-10-28T20:13:35.711Z,24.20
2022-10-28T20:16:04.618Z,24.20
2022-10-28T20:18:33.216Z,24.20
2022-10-28T20:21:05.272Z,24.10
2022-10-28T20:23:33.447Z,24.20
2022-10-28T20:26:01.512Z,24.20
2022-10-28T20:28:29.697Z,24.30
2022-10-28T20:31:03.005Z,24.30
2022-10-28T20:33:31.687Z,24.30
2022-10-28T20:36:00.096Z,24.20
2022-10-28T20:38:28.426Z,24.20
2022-10-28T20:41:00.154Z,24.20
2022-10-28T20:43:29.697Z,24.20
2022-10-28T20:46:00.727Z,24.20
2022-10-28T20:48:30.730Z,24.30
2022-10-28T20:50:59.656Z,24.30
2022-10-28T20:53:31.247Z,24.30
2022-10-28T20:55:59.368Z,24.30
2022-10-28T20:58:29.087Z,24.30
2022-10-28T21:01:02.273Z,24.20
2022-10-28T21:03:31.810Z,24.20
2022-10-28T21:06:00.192Z,24.10
2022-10-28T21:08:28.279Z,24.10
2022-10-28T21:11:02.225Z,24.00
2022-10-28T21:13:30.285Z,24.00
2022-10-28T21:16:00.879Z,24.00
2022-10-28T21:18:28.996Z,24.00
2022-10-28T21:21:01.416Z,24.00
2022-10-28T21:23:30.059Z,24.00
2022-10-28T21:25:59.872Z,23.90
2022-10-28T21:28:28.798Z,23.90
2022-10-28T21:31:00.023Z,24.00
2022-10-28T21:33:28.491Z,24.00
2022-10-28T21:35:57.364Z,24.00
2022-10-28T21:38:27.620Z,23.90
2022-10-28T21:40:59.620Z,23.90
2022-10-28T21:43:28.864Z,23.90
2022-10-28T21:45:59.297Z,23.90
2022-10-28T21:48:28.094Z,23.90
2022-10-28T21:50:57.118Z,23.80
2022-10-28T21:53:27.464Z,23.80
2022-10-28T21:56:03.827Z,23.80
2022-10-28T21:58:36.423Z,23.80
2022-10-28T22:01:06.582Z,23.80
2022-10-28T22:03:34.807Z,23.90
2022-10-28T22:06:03.292Z,23.90
2022-10-28T22:08:33.168Z,23.80
2022-10-28T22:11:06.568Z,23.80
2022-10-28T22:13:35.429Z,23.80
2022-10-28T22:16:08.200Z,23.70
2022-10-28T22:18:37.826Z,23.70
2022-10-28T22:21:07.536Z,23.70
2022-10-28T22:23:37.232Z,23.70
2022-10-28T22:26:08.166Z,23.70
2022-10-28T22:28:36.736Z,23.70
2022-10-28T22:31:07.277Z,23.70
2022-10-28T22:33:35.732Z,23.70
2022-10-28T22:36:06.125Z,23.70
2022-10-28T22:38:36.325Z,23.70
2022-10-28T22:41:08.580Z,23.70
2022-10-28T22:43:36.900Z,23.70
2022-10-28T22:46:07.710Z,23.60
2022-10-28T22:48:36.046Z,23.60
2022-10-28T22:51:04.844Z,23.60
2022-10-28T22:53:33.425Z,23.50
2022-10-28T22:56:03.125Z,23.60
2022-10-28T22:58:31.319Z,23.60
2022-10-28T23:01:07.409Z,23.60
2022-10-28T23:03:40.284Z,23.70
2022-10-28T23:06:12.235Z,23.60
2022-10-28T23:08:41.478Z,23.50
2022-10-28T23:11:11.914Z,23.60
2022-10-28T23:13:40.439Z,23.60
2022-10-28T23:16:10.861Z,23.60
2022-10-28T23:18:39.462Z,23.40
2022-10-28T23:21:10.788Z,23.40
2022-10-28T23:23:39.102Z,23.30
2022-10-28T23:26:07.960Z,23.30
2022-10-28T23:28:37.549Z,23.30
2022-10-28T23:31:06.347Z,23.20
2022-10-28T23:33:36.805Z,23.30
2022-10-28T23:36:07.511Z,23.20
2022-10-28T23:38:35.704Z,23.20
2022-10-28T23:41:07.939Z,23.10
2022-10-28T23:43:37.926Z,23.10
2022-10-28T23:46:06.430Z,23.00
2022-10-28T23:48:34.493Z,23.00
2022-10-28T23:51:05.433Z,23.00
2022-10-28T23:53:33.755Z,22.90
2022-10-28T23:56:01.991Z,22.80
2022-10-28T23:58:30.253Z,22.80
